Time;durP1;ratioP1;P1;durP2;ratioP2;P2;SDS_P1;SDS_P2;PMS_P1;PMS_P2;Temp;Humidity;BMP_temperature;BMP_pressure;BME280_temperature;BME280_humidity;BME280_pressure;Samples;Min_cycle;Max_cycle;Signal;HPM_P1;HPM_P2
2022/10/24 00:00:57;;;;;;;;;0.00;0.00;;;;;19.44;51.55;100029.72;5074278;27;45387;-52
2022/10/24 00:03:23;;;;;;;;;0.75;0.75;;;;;19.43;51.61;100020.94;5098454;27;45323;-50
2022/10/24 00:05:48;;;;;;;;;7.00;0.00;;;;;19.40;51.41;100021.16;5092780;27;45407;-51
2022/10/24 00:08:14;;;;;;;;;3.75;0.00;;;;;19.38;51.79;100019.59;5086604;27;45422;-51
2022/10/24 00:10:44;;;;;;;;;0.00;0.00;;;;;19.37;51.75;100025.84;5094830;27;45268;-50
2022/10/24 00:13:11;;;;;;;;;3.00;1.00;;;;;19.38;51.81;100031.03;5095508;27;45424;-51
2022/10/24 00:15:37;;;;;;;;;0.00;0.00;;;;;19.37;52.21;100024.06;5098890;27;46627;-49
2022/10/24 00:18:03;;;;;;;;;2.25;2.00;;;;;19.37;51.86;100023.19;5087502;27;45499;-51
2022/10/24 00:20:28;;;;;;;;;3.25;1.00;;;;;19.36;51.98;100014.41;5100887;27;45483;-52
2022/10/24 00:22:54;;;;;;;;;3.00;1.50;;;;;19.38;52.41;100017.78;5083099;27;45496;-51
2022/10/24 00:25:19;;;;;;;;;0.00;0.00;;;;;19.37;51.98;100013.44;5093583;27;47078;-51
2022/10/24 00:27:44;;;;;;;;;1.50;1.00;;;;;19.37;52.32;100015.22;5093429;27;52527;-48
2022/10/24 00:30:10;;;;;;;;;3.00;1.00;;;;;19.38;52.31;100011.63;5095434;27;67669;-51
2022/10/24 00:32:36;;;;;;;;;1.00;0.00;;;;;19.39;52.50;100015.97;5091733;27;45252;-48
2022/10/24 00:35:02;;;;;;;;;3.00;1.25;;;;;19.40;52.12;100022.97;5074056;27;46759;-50
2022/10/24 00:37:27;;;;;;;;;2.25;1.00;;;;;19.39;52.49;100014.19;5093437;27;45777;-50
2022/10/24 00:39:53;;;;;;;;;2.25;1.00;;;;;19.39;52.39;100015.97;5095688;27;45438;-48
2022/10/24 00:42:18;;;;;;;;;2.50;1.00;;;;;19.39;52.49;100023.91;5083628;27;45391;-52
2022/10/24 00:44:45;;;;;;;;;1.00;0.00;;;;;19.38;52.30;100028.38;5097609;27;46344;-52
2022/10/24 00:47:17;;;;;;;;;4.00;0.25;;;;;19.37;52.14;100021.41;5076492;27;45490;-52
2022/10/24 00:49:50;;;;;;;;;1.00;1.00;;;;;19.33;52.63;100019.91;5083925;27;45525;-52
2022/10/24 00:52:20;;;;;;;;;4.00;1.00;;;;;19.31;52.64;100024.50;5076336;27;45418;-54
2022/10/24 00:54:46;;;;;;;;;1.75;1.00;;;;;19.27;52.32;100009.78;5098878;27;46419;-54
2022/10/24 00:57:28;;;;;;;;;4.75;1.50;;;;;19.23;52.47;100019.78;5098866;27;68502;-49
2022/10/24 00:59:57;;;;;;;;;2.75;1.00;;;;;19.22;52.64;100033.16;5070236;27;45531;-51
2022/10/24 01:02:23;;;;;;;;;3.50;1.00;;;;;19.18;52.38;100037.00;5088133;27;45359;-51
2022/10/24 01:04:49;;;;;;;;;0.50;0.50;;;;;19.15;52.56;100030.94;5092613;27;68646;-50
2022/10/24 01:07:29;;;;;;;;;2.00;1.00;;;;;19.11;52.35;100041.91;5083795;27;45707;-52
2022/10/24 01:10:23;;;;;;;;;2.75;1.00;;;;;19.06;52.89;100049.34;5079403;27;45635;-54
2022/10/24 01:13:10;;;;;;;;;0.00;0.00;;;;;19.01;52.95;100051.50;5098256;27;45517;-52
2022/10/24 01:15:38;;;;;;;;;1.00;0.00;;;;;18.95;52.87;100047.50;5067219;27;45697;-53
2022/10/24 01:18:13;;;;;;;;;0.25;0.00;;;;;18.89;53.18;100058.53;5095561;27;45710;-51
2022/10/24 01:21:03;;;;;;;;;6.00;1.00;;;;;18.88;53.29;100068.31;5101103;27;45345;-52
2022/10/24 01:23:43;;;;;;;;;2.00;0.50;;;;;18.87;53.51;100074.53;5091241;27;45579;-52
2022/10/24 01:26:23;;;;;;;;;2.00;0.25;;;;;18.84;53.43;100081.88;5094345;27;45518;-52
2022/10/24 01:28:58;;;;;;;;;1.00;0.00;;;;;18.81;53.60;100085.56;5095525;27;45744;-48
2022/10/24 01:31:31;;;;;;;;;0.00;0.00;;;;;18.76;53.87;100082.41;5090929;27;45454;-49
2022/10/24 01:34:02;;;;;;;;;2.25;1.00;;;;;18.77;53.55;100087.59;5098563;27;45308;-51
2022/10/24 01:36:37;;;;;;;;;0.50;0.00;;;;;18.78;53.84;100078.69;5079549;27;45598;-49
2022/10/24 01:39:05;;;;;;;;;4.50;1.00;;;;;18.81;54.03;100079.44;5063432;27;45298;-51
2022/10/24 01:41:32;;;;;;;;;0.50;0.25;;;;;18.77;54.06;100076.16;5087616;27;45440;-49
2022/10/24 01:44:04;;;;;;;;;2.00;0.25;;;;;18.74;54.06;100073.72;5071366;27;54162;-49
2022/10/24 01:46:34;;;;;;;;;0.50;0.00;;;;;18.74;53.96;100074.56;5078929;27;46139;-48
2022/10/24 01:49:05;;;;;;;;;1.75;1.00;;;;;18.75;54.05;100076.28;5091996;27;45485;-50
2022/10/24 01:51:32;;;;;;;;;5.00;1.00;;;;;18.74;54.05;100079.88;5076171;27;45473;-49
2022/10/24 01:53:59;;;;;;;;;4.00;1.00;;;;;18.75;54.20;100070.09;5078556;27;55199;-50
2022/10/24 01:56:25;;;;;;;;;3.00;1.00;;;;;18.74;54.18;100071.91;5098702;27;46118;-49
2022/10/24 01:58:51;;;;;;;;;2.00;0.00;;;;;18.75;54.33;100070.09;5073615;27;45406;-52
2022/10/24 02:01:20;;;;;;;;;0.00;0.00;;;;;18.73;54.05;100070.25;5083269;27;45265;-48
2022/10/24 02:03:50;;;;;;;;;1.00;0.00;;;;;18.71;54.04;100071.28;5093128;27;45482;-49
2022/10/24 02:06:23;;;;;;;;;1.75;1.00;;;;;18.71;54.21;100058.88;5057028;28;47225;-53
2022/10/24 02:08:52;;;;;;;;;2.00;0.00;;;;;18.72;54.24;100073.00;5070922;27;45487;-52
2022/10/24 02:11:17;;;;;;;;;3.25;0.00;;;;;18.69;54.54;100066.09;5064834;27;45570;-50
2022/10/24 02:13:49;;;;;;;;;0.00;0.00;;;;;18.69;54.69;100059.94;5091895;27;69691;-54
2022/10/24 02:16:17;;;;;;;;;3.00;0.00;;;;;18.70;54.33;100053.72;5092554;27;46813;-51
2022/10/24 02:18:43;;;;;;;;;1.50;0.25;;;;;18.70;54.45;100056.34;5067591;27;45516;-51
2022/10/24 02:21:33;;;;;;;;;1.75;0.75;;;;;18.69;54.68;100047.53;5091525;27;45647;-50
2022/10/24 02:24:00;;;;;;;;;3.00;0.50;;;;;18.70;54.58;100049.25;5092632;27;45591;-49
2022/10/24 02:26:36;;;;;;;;;0.75;0.00;;;;;18.69;54.76;100030.78;5090618;27;46218;-49
2022/10/24 02:29:08;;;;;;;;;2.00;0.00;;;;;18.69;54.62;100039.59;5075566;27;45696;-52
2022/10/24 02:31:37;;;;;;;;;2.00;1.00;;;;;18.68;54.69;100035.25;5079132;27;45316;-52
2022/10/24 02:34:05;;;;;;;;;3.00;0.50;;;;;18.67;54.85;100040.66;5075368;27;47172;-55
2022/10/24 02:36:31;;;;;;;;;3.00;1.00;;;;;18.67;54.82;100038.00;5072404;27;46206;-52
2022/10/24 02:38:57;;;;;;;;;1.50;0.00;;;;;18.65;54.66;100032.81;5074996;27;45241;-50
2022/10/24 02:41:28;;;;;;;;;2.25;1.00;;;;;18.63;55.02;100026.78;5078908;27;63212;-52
2022/10/24 02:43:54;;;;;;;;;2.25;0.75;;;;;18.61;54.91;100028.72;5077870;27;45351;-54
2022/10/24 02:46:20;;;;;;;;;4.25;1.00;;;;;18.59;54.74;100018.22;5080703;27;53121;-48
2022/10/24 02:48:50;;;;;;;;;2.00;0.00;;;;;18.59;54.79;100026.16;5064409;27;45470;-52
2022/10/24 02:51:17;;;;;;;;;5.25;0.75;;;;;18.58;54.87;100015.69;5096544;27;45368;-53
2022/10/24 02:53:42;;;;;;;;;1.25;1.00;;;;;18.59;55.27;100017.34;5074692;27;45446;-52
2022/10/24 02:56:08;;;;;;;;;0.50;0.25;;;;;18.57;55.29;100008.66;5088067;27;65426;-48
2022/10/24 02:58:33;;;;;;;;;1.25;0.25;;;;;18.55;54.88;100002.63;5080174;27;72918;-53
2022/10/24 03:00:58;;;;;;;;;2.25;2.00;;;;;18.54;55.25;100008.91;5097507;27;45272;-52
2022/10/24 03:03:24;;;;;;;;;5.00;1.00;;;;;18.52;54.95;100021.41;5086187;27;67057;-49
2022/10/24 03:05:49;;;;;;;;;3.50;2.00;;;;;18.51;55.25;100017.06;5092237;27;46278;-52
2022/10/24 03:08:15;;;;;;;;;2.50;0.00;;;;;18.51;55.50;100023.22;5097794;27;45208;-51
2022/10/24 03:10:40;;;;;;;;;5.00;1.00;;;;;18.47;55.34;100028.81;5092924;27;58980;-53
2022/10/24 03:13:05;;;;;;;;;5.50;1.00;;;;;18.43;55.22;100040.59;5069440;27;45546;-52
2022/10/24 03:15:31;;;;;;;;;3.00;1.00;;;;;18.42;55.42;100050.38;5092266;27;45339;-53
2022/10/24 03:17:56;;;;;;;;;2.00;1.00;;;;;18.39;55.59;100039.97;5091099;27;45391;-51
2022/10/24 03:20:23;;;;;;;;;3.00;1.00;;;;;18.38;55.34;100049.75;5098651;27;45266;-50
2022/10/24 03:22:48;;;;;;;;;3.25;0.00;;;;;18.38;55.56;100041.78;5074750;27;45576;-50
2022/10/24 03:25:14;;;;;;;;;2.00;1.00;;;;;18.39;55.53;100046.13;5091328;27;46303;-52
2022/10/24 03:27:39;;;;;;;;;3.75;1.00;;;;;18.38;55.59;100044.44;5088792;27;45512;-53
2022/10/24 03:30:05;;;;;;;;;0.00;0.00;;;;;18.37;55.37;100047.19;5089643;27;45375;-52
2022/10/24 03:32:32;;;;;;;;;3.75;0.00;;;;;18.35;55.62;100057.88;5087130;27;45426;-54
2022/10/24 03:34:58;;;;;;;;;2.25;0.75;;;;;18.33;55.75;100043.91;5089049;27;46048;-53
2022/10/24 03:37:24;;;;;;;;;2.50;0.75;;;;;18.33;56.01;100056.31;5092292;27;45326;-54
2022/10/24 03:39:50;;;;;;;;;2.50;1.00;;;;;18.29;55.48;100061.00;5093496;27;45512;-50
2022/10/24 03:42:15;;;;;;;;;6.25;1.00;;;;;18.27;56.04;100051.44;5077145;27;45833;-51
2022/10/24 03:44:40;;;;;;;;;3.50;1.00;;;;;18.26;56.12;100076.25;5098462;27;71462;-50
2022/10/24 03:47:06;;;;;;;;;4.25;1.00;;;;;18.24;56.02;100070.19;5095279;27;60486;-51
2022/10/24 03:49:31;;;;;;;;;2.75;1.00;;;;;18.21;55.85;100065.97;5091254;27;68172;-52
2022/10/24 03:51:56;;;;;;;;;2.00;1.25;;;;;18.17;56.15;100073.28;5094728;27;66851;-52
2022/10/24 03:54:22;;;;;;;;;2.50;2.00;;;;;18.15;56.34;100069.88;5075381;27;74051;-54
2022/10/24 03:56:48;;;;;;;;;2.25;1.25;;;;;18.15;56.25;100076.97;5066532;27;67759;-54
2022/10/24 03:59:13;;;;;;;;;6.25;1.75;;;;;18.15;56.22;100075.19;5098825;27;45299;-50
2022/10/24 04:01:39;;;;;;;;;3.00;1.00;;;;;18.15;56.22;100085.78;5090870;27;45581;-51
2022/10/24 04:04:04;;;;;;;;;4.00;1.75;;;;;18.14;56.52;100086.72;5092286;27;66678;-50
2022/10/24 04:06:29;;;;;;;;;4.00;0.00;;;;;18.15;56.22;100099.03;5100528;27;45417;-51
2022/10/24 04:08:55;;;;;;;;;3.75;1.00;;;;;18.12;56.63;100107.16;5095317;27;45457;-49
2022/10/24 04:11:21;;;;;;;;;3.50;1.00;;;;;18.14;56.36;100099.13;5088514;27;45475;-49
2022/10/24 04:13:47;;;;;;;;;4.00;1.00;;;;;18.14;56.40;100112.38;5085669;27;45519;-50
2022/10/24 04:16:12;;;;;;;;;3.00;1.25;;;;;18.14;56.77;100115.84;5088773;27;45689;-48
2022/10/24 04:18:37;;;;;;;;;4.25;0.50;;;;;18.15;57.00;100122.84;5086438;27;53784;-51
2022/10/24 04:21:03;;;;;;;;;2.50;0.75;;;;;18.16;56.46;100121.88;5096727;27;45409;-52
2022/10/24 04:23:33;;;;;;;;;4.00;0.50;;;;;18.15;56.68;100119.34;5100690;27;45733;-52
2022/10/24 04:25:58;;;;;;;;;3.25;2.00;;;;;18.15;56.83;100124.63;5093585;27;45653;-51
2022/10/24 04:28:24;;;;;;;;;2.75;1.00;;;;;18.17;56.74;100133.34;5095628;27;69365;-52
2022/10/24 04:30:54;;;;;;;;;5.00;1.00;;;;;18.18;56.89;100140.31;5085771;27;58792;-52
2022/10/24 04:33:19;;;;;;;;;2.00;1.00;;;;;18.15;56.52;100141.38;5075598;27;48233;-50
2022/10/24 04:35:48;;;;;;;;;5.00;1.00;;;;;18.15;56.59;100143.16;5097185;27;69420;-51
2022/10/24 04:38:13;;;;;;;;;7.25;1.00;;;;;18.12;56.62;100141.59;5082003;27;45500;-49
2022/10/24 04:40:39;;;;;;;;;2.75;0.00;;;;;18.10;56.55;100143.50;5073756;27;51243;-50
2022/10/24 04:43:04;;;;;;;;;3.00;1.75;;;;;18.07;56.70;100156.09;5097333;27;65952;-52
2022/10/24 04:45:29;;;;;;;;;1.00;1.00;;;;;18.07;56.87;100158.75;5087496;27;70043;-51
2022/10/24 04:47:55;;;;;;;;;1.75;1.00;;;;;18.08;56.98;100163.06;5087696;27;45289;-51
2022/10/24 04:50:20;;;;;;;;;9.00;1.00;;;;;18.07;56.74;100162.25;5092495;27;45439;-50
2022/10/24 04:52:45;;;;;;;;;0.00;0.00;;;;;18.08;56.59;100163.06;5100072;27;49133;-48
2022/10/24 04:55:11;;;;;;;;;4.75;1.75;;;;;18.06;57.03;100160.56;5089432;27;45475;-51
2022/10/24 04:57:36;;;;;;;;;3.50;0.00;;;;;18.05;56.79;100164.16;5098356;27;67864;-52
2022/10/24 05:00:02;;;;;;;;;3.75;2.00;;;;;18.03;56.96;100169.53;5092294;27;52969;-51
2022/10/24 05:02:28;;;;;;;;;5.00;1.75;;;;;18.01;56.97;100182.03;5085752;27;46154;-51
2022/10/24 05:04:53;;;;;;;;;3.00;1.75;;;;;18.02;57.19;100178.44;5093028;27;67172;-47
2022/10/24 05:07:20;;;;;;;;;4.00;1.00;;;;;18.00;56.98;100176.84;5093918;27;57523;-48
2022/10/24 05:09:46;;;;;;;;;5.00;1.00;;;;;18.00;57.05;100182.97;5085972;27;45497;-50
2022/10/24 05:12:12;;;;;;;;;5.25;2.25;;;;;18.00;57.12;100188.28;5065932;27;45269;-52
2022/10/24 05:14:37;;;;;;;;;6.25;1.00;;;;;18.00;57.27;100188.28;5095175;27;45311;-52
2022/10/24 05:17:03;;;;;;;;;5.00;1.00;;;;;17.98;57.26;100198.13;5093768;27;59572;-51
2022/10/24 05:19:28;;;;;;;;;2.25;0.50;;;;;17.97;57.20;100193.78;5091646;27;45225;-52
2022/10/24 05:21:53;;;;;;;;;0.25;0.25;;;;;17.97;57.09;100192.91;5098023;27;68867;-48
2022/10/24 05:24:19;;;;;;;;;8.50;1.00;;;;;17.94;57.22;100194.00;5092114;27;45573;-48
2022/10/24 05:26:44;;;;;;;;;3.50;1.50;;;;;17.91;57.18;100204.78;5093076;27;45470;-49
2022/10/24 05:29:09;;;;;;;;;3.75;1.00;;;;;17.91;57.39;100209.22;5094883;27;66727;-51
2022/10/24 05:31:35;;;;;;;;;15.00;7.50;;;;;17.89;57.47;100217.28;5093577;27;45218;-50
2022/10/24 05:34:00;;;;;;;;;4.00;2.50;;;;;17.89;57.55;100230.50;5094673;27;47057;-50
2022/10/24 05:36:25;;;;;;;;;5.50;1.25;;;;;17.90;57.33;100236.63;5087451;27;62035;-52
2022/10/24 05:38:51;;;;;;;;;5.00;2.00;;;;;17.88;57.42;100236.72;5085899;27;69074;-53
2022/10/24 05:41:16;;;;;;;;;6.00;2.00;;;;;17.89;57.47;100233.16;5099336;27;68977;-52
2022/10/24 05:43:41;;;;;;;;;1.00;1.00;;;;;17.89;57.86;100235.81;5087078;27;67749;-53
2022/10/24 05:46:07;;;;;;;;;1.75;1.75;;;;;17.88;57.69;100233.25;5095261;27;69091;-51
2022/10/24 05:48:32;;;;;;;;;3.00;2.00;;;;;17.88;57.85;100225.31;5099400;27;45283;-52
2022/10/24 05:50:57;;;;;;;;;3.75;2.00;;;;;17.87;57.55;100227.13;5072723;27;66748;-51
2022/10/24 05:53:24;;;;;;;;;5.00;3.50;;;;;17.83;58.02;100223.78;5099712;27;45324;-50
2022/10/24 05:55:50;;;;;;;;;8.50;2.50;;;;;17.85;57.62;100223.69;5079525;27;45282;-52
2022/10/24 05:58:19;;;;;;;;;6.75;1.00;;;;;17.84;58.04;100228.13;5096249;27;57618;-48
2022/10/24 06:00:48;;;;;;;;;5.75;2.00;;;;;17.83;57.99;100231.72;5098054;27;45276;-53
2022/10/24 06:03:13;;;;;;;;;1.25;1.25;;;;;17.83;58.18;100234.38;5092765;27;45437;-52
2022/10/24 06:05:39;;;;;;;;;3.25;0.75;;;;;17.84;58.31;100227.28;5094291;27;45359;-49
2022/10/24 06:08:04;;;;;;;;;6.75;1.75;;;;;17.84;58.02;100230.75;5095538;27;68771;-50
2022/10/24 06:10:29;;;;;;;;;2.50;1.00;;;;;17.83;58.19;100231.72;5089156;27;61306;-52
2022/10/24 06:12:55;;;;;;;;;3.75;0.25;;;;;17.84;57.77;100241.34;5093297;27;63976;-52
2022/10/24 06:15:20;;;;;;;;;4.75;1.50;;;;;17.84;58.27;100230.75;5072780;27;59276;-51
2022/10/24 06:17:46;;;;;;;;;4.50;2.00;;;;;17.86;58.37;100230.69;5097458;27;45265;-53
2022/10/24 06:20:11;;;;;;;;;3.75;2.00;;;;;17.88;58.29;100235.91;5075096;27;45884;-53
2022/10/24 06:22:37;;;;;;;;;6.25;1.00;;;;;17.88;58.27;100235.91;5097591;27;45464;-53
2022/10/24 06:25:03;;;;;;;;;5.00;1.75;;;;;17.87;58.18;100228.91;5091029;27;45210;-57
2022/10/24 06:27:28;;;;;;;;;3.50;2.00;;;;;17.90;58.07;100234.88;5074117;27;45467;-47
2022/10/24 06:29:53;;;;;;;;;2.75;1.00;;;;;17.89;58.31;100227.00;5084830;27;56934;-47
2022/10/24 06:32:19;;;;;;;;;2.75;1.50;;;;;17.92;58.27;100229.44;5084455;27;67626;-49
2022/10/24 06:34:44;;;;;;;;;7.50;2.75;;;;;17.89;58.13;100241.09;5095763;27;45510;-50
2022/10/24 06:37:09;;;;;;;;;2.75;1.00;;;;;17.88;58.16;100255.25;5082267;27;45339;-49
2022/10/24 06:39:35;;;;;;;;;4.25;1.00;;;;;17.88;58.11;100252.63;5088778;27;46249;-51
2022/10/24 06:42:01;;;;;;;;;5.50;1.00;;;;;17.89;57.90;100248.19;5095319;27;59750;-51
2022/10/24 06:44:26;;;;;;;;;3.00;1.50;;;;;17.89;58.12;100262.28;5093996;27;45325;-51
2022/10/24 06:46:52;;;;;;;;;5.00;2.00;;;;;17.86;58.09;100262.47;5090561;27;47081;-48
2022/10/24 06:49:17;;;;;;;;;6.00;3.00;;;;;17.87;58.16;100272.13;5089707;27;45997;-50
2022/10/24 06:51:42;;;;;;;;;2.00;2.00;;;;;17.87;58.05;100276.56;5087368;27;65109;-48
2022/10/24 06:54:08;;;;;;;;;5.25;1.00;;;;;17.85;57.91;100276.63;5095260;27;45435;-47
2022/10/24 06:56:34;;;;;;;;;9.25;2.00;;;;;17.86;57.87;100270.41;5075526;28;45462;-48
2022/10/24 06:58:59;;;;;;;;;2.00;1.00;;;;;17.83;57.97;100270.59;5072344;28;45210;-49
2022/10/24 07:01:25;;;;;;;;;5.00;2.00;;;;;17.81;57.96;100280.41;5092598;27;72370;-50
2022/10/24 07:03:52;;;;;;;;;6.00;2.25;;;;;17.79;57.99;100282.31;5098429;27;45314;-50
2022/10/24 07:06:20;;;;;;;;;5.25;1.75;;;;;17.78;57.80;100291.22;5091000;27;45276;-50
2022/10/24 07:08:46;;;;;;;;;3.50;1.50;;;;;17.78;57.89;100288.56;5098265;27;45403;-47
2022/10/24 07:11:12;;;;;;;;;3.00;1.25;;;;;17.75;58.17;100300.19;5081782;27;45278;-49
2022/10/24 07:13:37;;;;;;;;;2.25;1.00;;;;;17.76;58.25;100301.03;5077871;27;45548;-47
2022/10/24 07:16:03;;;;;;;;;4.25;2.00;;;;;17.78;58.05;100315.03;5092018;27;45734;-48
2022/10/24 07:18:29;;;;;;;;;7.25;5.25;;;;;17.77;58.01;100316.81;5094620;27;47092;-49
2022/10/24 07:20:54;;;;;;;;;12.25;8.00;;;;;17.78;57.82;100322.97;5093933;27;45409;-48
2022/10/24 07:23:19;;;;;;;;;7.50;4.75;;;;;17.78;58.02;100320.31;5093271;27;49976;-49
2022/10/24 07:25:45;;;;;;;;;12.50;5.00;;;;;17.79;58.04;100330.78;5095122;27;45543;-48
2022/10/24 07:28:11;;;;;;;;;5.00;2.75;;;;;17.83;58.27;100328.81;5088751;27;45591;-48
2022/10/24 07:30:37;;;;;;;;;5.25;2.50;;;;;17.87;57.92;100326.88;5067654;28;45237;-49
2022/10/24 07:33:03;;;;;;;;;5.00;1.25;;;;;17.90;57.88;100324.00;5071728;27;45312;-47
2022/10/24 07:35:29;;;;;;;;;1.00;1.00;;;;;17.92;57.84;100330.03;5071801;27;45469;-49
2022/10/24 07:37:54;;;;;;;;;3.25;2.00;;;;;17.93;58.08;100331.75;5099065;27;46237;-47
2022/10/24 07:40:20;;;;;;;;;3.00;2.00;;;;;17.95;57.98;100335.16;5088688;27;57927;-47
2022/10/24 07:42:45;;;;;;;;;1.75;1.25;;;;;17.95;58.11;100337.78;5100183;27;45362;-49
2022/10/24 07:45:11;;;;;;;;;3.50;2.75;;;;;17.97;57.97;100335.88;5086592;27;63734;-51
2022/10/24 07:47:36;;;;;;;;;3.50;2.00;;;;;17.96;57.86;100347.44;5077697;27;70758;-50
2022/10/24 07:50:03;;;;;;;;;4.50;2.00;;;;;17.94;57.88;100336.94;5092875;27;45381;-48
2022/10/24 07:52:28;;;;;;;;;4.50;2.75;;;;;17.95;57.89;100345.72;5077807;27;45450;-48
2022/10/24 07:54:54;;;;;;;;;7.75;3.00;;;;;17.94;57.90;100346.69;5078767;27;66868;-51
2022/10/24 07:57:20;;;;;;;;;6.50;3.00;;;;;17.92;58.00;100349.44;5092797;27;46250;-54
2022/10/24 07:59:45;;;;;;;;;3.75;2.00;;;;;17.91;57.87;100350.38;5085983;27;45225;-48
2022/10/24 08:02:12;;;;;;;;;6.25;2.00;;;;;17.92;57.90;100354.75;5067937;27;45746;-50
2022/10/24 08:04:38;;;;;;;;;3.50;1.00;;;;;17.94;57.92;100362.59;5092513;27;45229;-47
2022/10/24 08:07:04;;;;;;;;;5.50;2.75;;;;;17.94;57.87;100357.28;5074347;27;47670;-52
2022/10/24 08:09:29;;;;;;;;;6.75;2.00;;;;;17.93;57.75;100360.88;5090914;27;45368;-53
2022/10/24 08:11:54;;;;;;;;;4.50;4.00;;;;;17.92;58.22;100362.69;5089232;27;60295;-53
2022/10/24 08:14:20;;;;;;;;;2.50;2.00;;;;;17.96;58.14;100358.03;5089941;27;45439;-50
2022/10/24 08:16:45;;;;;;;;;4.50;1.25;;;;;17.98;58.19;100370.22;5078605;27;56242;-53
2022/10/24 08:19:11;;;;;;;;;5.50;1.50;;;;;17.99;58.25;100361.34;5095347;27;74288;-52
2022/10/24 08:21:37;;;;;;;;;3.25;2.25;;;;;18.02;58.08;100368.22;5077201;27;45587;-51
2022/10/24 08:24:02;;;;;;;;;6.25;3.50;;;;;18.05;58.20;100370.69;5089213;27;45351;-52
2022/10/24 08:26:28;;;;;;;;;5.75;2.00;;;;;18.08;58.41;100374.91;5094337;27;46211;-53
2022/10/24 08:28:54;;;;;;;;;5.50;2.00;;;;;18.09;58.02;100381.94;5090277;27;64462;-49
2022/10/24 08:31:21;;;;;;;;;4.75;2.25;;;;;18.10;58.00;100371.25;5097043;27;45415;-53
2022/10/24 08:33:49;;;;;;;;;6.00;2.00;;;;;18.09;57.98;100373.97;5076014;27;45466;-52
2022/10/24 08:36:22;;;;;;;;;5.00;3.00;;;;;18.08;58.24;100383.72;5102335;27;45289;-49
2022/10/24 08:38:47;;;;;;;;;4.00;2.00;;;;;18.10;57.85;100383.63;5071373;27;46407;-52
2022/10/24 08:41:25;;;;;;;;;7.25;2.00;;;;;18.14;58.20;100393.06;5099728;27;45488;-49
2022/10/24 08:43:52;;;;;;;;;7.25;2.00;;;;;18.19;58.22;100391.81;5103411;27;45406;-49
2022/10/24 08:46:38;;;;;;;;;5.00;2.50;;;;;18.25;57.90;100395.88;5093682;27;45469;-52
2022/10/24 08:49:27;;;;;;;;;9.25;3.00;;;;;18.31;57.69;100400.78;5074619;27;45331;-54
2022/10/24 08:51:58;;;;;;;;;13.75;6.00;;;;;18.35;57.80;100385.53;5079931;27;45475;-46
2022/10/24 08:54:29;;;;;;;;;3.00;2.75;;;;;18.36;57.41;100400.47;5080929;28;45269;-50
2022/10/24 08:56:58;;;;;;;;;2.50;1.00;;;;;18.42;57.42;100391.31;5078770;27;46324;-51
2022/10/24 08:59:27;;;;;;;;;7.00;2.25;;;;;18.46;57.46;100400.75;5095892;27;45629;-52
2022/10/24 09:02:01;;;;;;;;;7.00;4.00;;;;;18.48;57.05;100396.19;5101822;27;45476;-52
2022/10/24 09:04:33;;;;;;;;;7.50;3.00;;;;;18.49;57.27;100389.94;5098581;27;45624;-53
2022/10/24 09:06:59;;;;;;;;;5.75;3.00;;;;;18.48;57.23;100399.66;5097106;27;45428;-49
2022/10/24 09:09:32;;;;;;;;;5.00;3.50;;;;;18.49;57.17;100400.53;5091542;27;68635;-53
2022/10/24 09:12:03;;;;;;;;;4.00;2.00;;;;;18.51;57.34;100401.28;5102303;27;45427;-51
2022/10/24 09:14:34;;;;;;;;;4.75;2.75;;;;;18.52;57.04;100403.84;5055103;28;46175;-50
2022/10/24 09:17:18;;;;;;;;;4.00;2.00;;;;;18.56;57.45;100405.34;5081704;27;45280;-53
2022/10/24 09:19:51;;;;;;;;;7.50;2.50;;;;;18.63;57.15;100412.88;5083533;27;45308;-50
2022/10/24 09:22:17;;;;;;;;;3.75;2.00;;;;;18.68;57.29;100413.41;5102377;27;45334;-52
2022/10/24 09:25:10;;;;;;;;;4.00;2.00;;;;;18.74;57.10;100410.38;5080516;27;45458;-51
2022/10/24 09:27:39;;;;;;;;;3.00;1.75;;;;;18.79;57.43;100419.72;5094501;27;45450;-49
2022/10/24 09:30:06;;;;;;;;;7.50;3.00;;;;;18.86;56.85;100419.34;5097674;27;45589;-50
2022/10/24 09:32:34;;;;;;;;;5.00;2.00;;;;;18.90;56.55;100420.84;5095953;27;45342;-48
2022/10/24 09:35:03;;;;;;;;;2.25;0.75;;;;;18.95;56.65;100434.63;5080403;28;45485;-45
2022/10/24 09:37:40;;;;;;;;;5.50;2.50;;;;;18.96;56.36;100429.25;5096664;27;46856;-45
2022/10/24 09:40:12;;;;;;;;;3.00;2.50;;;;;18.99;56.25;100406.94;5102071;27;45621;-46
2022/10/24 09:42:38;;;;;;;;;7.50;3.00;;;;;19.00;56.55;100421.94;5100914;27;45340;-46
2022/10/24 09:45:27;;;;;;;;;6.00;3.00;;;;;19.04;55.98;100430.53;5074561;27;45337;-46
2022/10/24 09:47:59;;;;;;;;;6.00;2.75;;;;;19.06;56.20;100442.72;5085043;27;47127;-49
2022/10/24 09:50:24;;;;;;;;;3.75;2.00;;;;;19.07;56.22;100444.44;5077442;27;45454;-47
2022/10/24 09:52:52;;;;;;;;;6.75;2.00;;;;;19.09;56.07;100441.69;5101945;27;45410;-48
2022/10/24 09:55:23;;;;;;;;;2.75;2.75;;;;;19.08;56.04;100450.56;5081075;27;45259;-46
2022/10/24 09:57:53;;;;;;;;;6.75;2.00;;;;;19.07;56.06;100452.38;5098839;27;46110;-47
2022/10/24 10:00:28;;;;;;;;;8.75;3.00;;;;;19.10;56.03;100461.91;5100290;27;45766;-45
2022/10/24 10:02:58;;;;;;;;;4.75;2.25;;;;;19.10;56.25;100460.09;5083260;27;45223;-49
2022/10/24 10:05:24;;;;;;;;;5.75;2.50;;;;;19.09;56.53;100466.38;5100515;27;45461;-50
2022/10/24 10:07:50;;;;;;;;;5.50;1.50;;;;;19.09;56.87;100469.03;5088354;27;46922;-49
2022/10/24 10:10:23;;;;;;;;;4.75;1.75;;;;;19.08;56.70;100471.78;5099126;27;45672;-49
2022/10/24 10:12:57;;;;;;;;;6.00;1.50;;;;;19.06;56.47;100468.41;5088132;27;45355;-51
2022/10/24 10:15:34;;;;;;;;;6.25;2.00;;;;;19.05;56.89;100466.69;5093900;27;45394;-48
2022/10/24 10:18:20;;;;;;;;;5.50;3.00;;;;;19.06;56.79;100463.94;5088308;27;46506;-46
2022/10/24 10:20:56;;;;;;;;;5.75;3.75;;;;;19.09;56.40;100469.03;5074295;27;45730;-48
2022/10/24 10:23:30;;;;;;;;;4.75;2.00;;;;;19.13;56.16;100462.56;5096846;27;45302;-47
2022/10/24 10:26:06;;;;;;;;;3.50;2.25;;;;;19.17;56.65;100460.56;5083085;27;45427;-47
2022/10/24 10:28:35;;;;;;;;;3.50;3.50;;;;;19.20;56.34;100452.41;5092041;27;46215;-46
2022/10/24 10:31:01;;;;;;;;;5.50;3.50;;;;;19.24;56.18;100463.66;5094158;27;45655;-51
2022/10/24 10:33:35;;;;;;;;;6.50;3.00;;;;;19.30;56.02;100468.53;5070513;27;65238;-50
2022/10/24 10:36:11;;;;;;;;;7.50;2.50;;;;;19.37;55.79;100461.00;5071754;27;45264;-46
2022/10/24 10:38:44;;;;;;;;;3.75;3.00;;;;;19.44;55.84;100456.97;5079271;27;45378;-51
2022/10/24 10:41:31;;;;;;;;;4.25;2.25;;;;;19.46;55.78;100458.59;5085009;27;45323;-47
2022/10/24 10:44:03;;;;;;;;;2.00;1.75;;;;;19.51;55.82;100464.44;5099700;27;45516;-47
2022/10/24 10:46:38;;;;;;;;;4.50;2.25;;;;;19.57;55.38;100462.31;5073172;27;45532;-49
2022/10/24 10:49:09;;;;;;;;;5.50;3.00;;;;;19.62;55.71;100466.34;5077805;27;45376;-46
2022/10/24 10:51:43;;;;;;;;;4.50;4.00;;;;;19.66;55.35;100470.47;5097379;27;45300;-48
2022/10/24 10:54:30;;;;;;;;;4.50;3.00;;;;;19.72;55.27;100469.19;5086316;27;45496;-49
2022/10/24 10:57:11;;;;;;;;;4.00;4.00;;;;;19.78;55.35;100468.81;5097474;27;45224;-49
2022/10/24 10:59:52;;;;;;;;;4.50;2.00;;;;;19.82;55.08;100470.28;5090891;27;46085;-46
2022/10/24 11:02:36;;;;;;;;;2.00;2.00;;;;;19.86;54.84;100463.78;5071402;27;45333;-49
2022/10/24 11:05:39;;;;;;;;;5.00;3.75;;;;;19.92;55.13;100481.97;5077086;27;45771;-47
2022/10/24 11:08:31;;;;;;;;;7.00;3.50;;;;;19.98;54.45;100471.88;5096502;27;45796;-49
2022/10/24 11:11:02;;;;;;;;;6.50;3.00;;;;;19.98;54.32;100471.88;5094582;27;46185;-47
2022/10/24 11:13:34;;;;;;;;;7.50;4.00;;;;;19.98;54.77;100475.38;5061528;28;45614;-49
2022/10/24 11:16:03;;;;;;;;;7.75;4.00;;;;;19.99;54.25;100457.63;5071124;27;45515;-51
2022/10/24 11:18:32;;;;;;;;;10.00;5.00;;;;;19.97;54.03;100464.84;5073643;27;45498;-52
2022/10/24 11:21:09;;;;;;;;;6.00;2.50;;;;;19.97;53.86;100462.19;5092330;27;46728;-51
2022/10/24 11:23:48;;;;;;;;;6.50;3.00;;;;;19.96;54.08;100458.69;5082001;27;45848;-48
2022/10/24 11:26:37;;;;;;;;;8.00;3.00;;;;;19.99;54.44;100470.88;5051875;28;45458;-48
2022/10/24 11:29:28;;;;;;;;;7.75;2.75;;;;;19.98;53.93;100464.75;5095192;27;45461;-49
2022/10/24 11:31:58;;;;;;;;;5.50;3.75;;;;;19.99;53.93;100469.09;5074001;27;46889;-50